sensor_id;sensor_type;location;lat;lon;timestamp;P1;durP1;ratioP1;P2;durP2;ratioP2
13801;SDS011;6972;51.518;6.918;2023-08-12T00:02:10;5.60;;;4.55;;
13801;SDS011;6972;51.518;6.918;2023-08-12T00:04:36;6.82;;;4.45;;
13801;SDS011;6972;51.518;6.918;2023-08-12T00:07:02;7.20;;;4.70;;
13801;SDS011;6972;51.518;6.918;2023-08-12T00:09:28;9.25;;;5.13;;
13801;SDS011;6972;51.518;6.918;2023-08-12T00:11:54;6.53;;;4.50;;
13801;SDS011;6972;51.518;6.918;2023-08-12T00:14:20;7.32;;;4.78;;
13801;SDS011;6972;51.518;6.918;2023-08-12T00:16:46;7.43;;;5.03;;
13801;SDS011;6972;51.518;6.918;2023-08-12T00:19:12;6.72;;;4.93;;
13801;SDS011;6972;51.518;6.918;2023-08-12T00:21:38;8.25;;;6.03;;
13801;SDS011;6972;51.518;6.918;2023-08-12T00:24:04;9.35;;;6.20;;
13801;SDS011;6972;51.518;6.918;2023-08-12T00:26:31;8.20;;;7.13;;
13801;SDS011;6972;51.518;6.918;2023-08-12T00:28:57;10.48;;;6.95;;
13801;SDS011;6972;51.518;6.918;2023-08-12T00:31:23;10.82;;;7.40;;
13801;SDS011;6972;51.518;6.918;2023-08-12T00:33:49;8.50;;;6.95;;
13801;SDS011;6972;51.518;6.918;2023-08-12T00:36:15;12.95;;;7.65;;
13801;SDS011;6972;51.518;6.918;2023-08-12T00:38:41;10.98;;;7.72;;
13801;SDS011;6972;51.518;6.918;2023-08-12T00:41:07;9.10;;;7.70;;
13801;SDS011;6972;51.518;6.918;2023-08-12T00:43:33;12.23;;;7.70;;
13801;SDS011;6972;51.518;6.918;2023-08-12T00:45:59;11.45;;;8.48;;
13801;SDS011;6972;51.518;6.918;2023-08-12T00:48:25;14.23;;;9.40;;
13801;SDS011;6972;51.518;6.918;2023-08-12T00:50:51;12.52;;;10.13;;
13801;SDS011;6972;51.518;6.918;2023-08-12T00:53:18;15.95;;;10.43;;
13801;SDS011;6972;51.518;6.918;2023-08-12T00:55:44;11.98;;;9.60;;
13801;SDS011;6972;51.518;6.918;2023-08-12T00:58:10;10.23;;;8.38;;
13801;SDS011;6972;51.518;6.918;2023-08-12T01:00:37;13.35;;;9.10;;
13801;SDS011;6972;51.518;6.918;2023-08-12T01:03:03;12.48;;;8.90;;
13801;SDS011;6972;51.518;6.918;2023-08-12T01:05:30;14.25;;;10.10;;
13801;SDS011;6972;51.518;6.918;2023-08-12T01:07:56;17.38;;;9.93;;
13801;SDS011;6972;51.518;6.918;2023-08-12T01:10:23;14.20;;;9.75;;
13801;SDS011;6972;51.518;6.918;2023-08-12T01:12:52;11.27;;;9.23;;
13801;SDS011;6972;51.518;6.918;2023-08-12T01:15:22;14.00;;;10.45;;
13801;SDS011;6972;51.518;6.918;2023-08-12T01:17:50;14.77;;;11.05;;
13801;SDS011;6972;51.518;6.918;2023-08-12T01:20:22;14.88;;;10.98;;
13801;SDS011;6972;51.518;6.918;2023-08-12T01:22:54;17.73;;;11.75;;
13801;SDS011;6972;51.518;6.918;2023-08-12T01:25:23;16.45;;;12.30;;
13801;SDS011;6972;51.518;6.918;2023-08-12T01:27:49;11.88;;;10.02;;
13801;SDS011;6972;51.518;6.918;2023-08-12T01:30:15;15.52;;;10.98;;
13801;SDS011;6972;51.518;6.918;2023-08-12T01:35:17;15.50;;;10.65;;
13801;SDS011;6972;51.518;6.918;2023-08-12T01:37:45;18.45;;;12.00;;
13801;SDS011;6972;51.518;6.918;2023-08-12T01:40:11;14.52;;;11.30;;
13801;SDS011;6972;51.518;6.918;2023-08-12T01:42:40;16.08;;;11.70;;
13801;SDS011;6972;51.518;6.918;2023-08-12T01:45:06;15.57;;;11.18;;
13801;SDS011;6972;51.518;6.918;2023-08-12T01:47:33;16.15;;;11.15;;
13801;SDS011;6972;51.518;6.918;2023-08-12T01:49:59;17.38;;;11.38;;
13801;SDS011;6972;51.518;6.918;2023-08-12T01:52:25;17.58;;;10.45;;
13801;SDS011;6972;51.518;6.918;2023-08-12T01:54:51;13.10;;;10.45;;
13801;SDS011;6972;51.518;6.918;2023-08-12T01:57:17;16.00;;;11.10;;
13801;SDS011;6972;51.518;6.918;2023-08-12T01:59:43;18.73;;;11.43;;
13801;SDS011;6972;51.518;6.918;2023-08-12T02:02:09;18.67;;;11.68;;
13801;SDS011;6972;51.518;6.918;2023-08-12T02:04:36;16.17;;;10.82;;
13801;SDS011;6972;51.518;6.918;2023-08-12T02:07:03;15.35;;;10.38;;
13801;SDS011;6972;51.518;6.918;2023-08-12T02:09:29;13.25;;;9.65;;
13801;SDS011;6972;51.518;6.918;2023-08-12T02:11:55;15.52;;;9.50;;
13801;SDS011;6972;51.518;6.918;2023-08-12T02:14:21;13.50;;;9.07;;
13801;SDS011;6972;51.518;6.918;2023-08-12T02:16:47;12.93;;;8.98;;
13801;SDS011;6972;51.518;6.918;2023-08-12T02:19:14;12.02;;;7.32;;
13801;SDS011;6972;51.518;6.918;2023-08-12T02:21:40;13.82;;;7.90;;
13801;SDS011;6972;51.518;6.918;2023-08-12T02:24:07;13.55;;;8.85;;
13801;SDS011;6972;51.518;6.918;2023-08-12T02:26:33;12.93;;;8.43;;
13801;SDS011;6972;51.518;6.918;2023-08-12T02:28:59;12.65;;;8.25;;
13801;SDS011;6972;51.518;6.918;2023-08-12T02:31:25;13.68;;;8.23;;
13801;SDS011;6972;51.518;6.918;2023-08-12T02:33:51;12.57;;;7.90;;
13801;SDS011;6972;51.518;6.918;2023-08-12T02:36:17;13.68;;;8.80;;
13801;SDS011;6972;51.518;6.918;2023-08-12T02:38:44;13.75;;;8.48;;
13801;SDS011;6972;51.518;6.918;2023-08-12T02:41:10;12.65;;;7.93;;
13801;SDS011;6972;51.518;6.918;2023-08-12T02:43:36;11.20;;;8.02;;
13801;SDS011;6972;51.518;6.918;2023-08-12T02:46:02;14.13;;;7.93;;
13801;SDS011;6972;51.518;6.918;2023-08-12T02:48:28;11.63;;;8.15;;
13801;SDS011;6972;51.518;6.918;2023-08-12T02:50:54;11.60;;;7.80;;
13801;SDS011;6972;51.518;6.918;2023-08-12T02:53:20;14.27;;;7.90;;
13801;SDS011;6972;51.518;6.918;2023-08-12T02:55:46;12.57;;;8.02;;
13801;SDS011;6972;51.518;6.918;2023-08-12T02:58:12;13.70;;;8.55;;
13801;SDS011;6972;51.518;6.918;2023-08-12T03:00:44;17.02;;;8.40;;
13801;SDS011;6972;51.518;6.918;2023-08-12T03:03:10;10.05;;;7.22;;
13801;SDS011;6972;51.518;6.918;2023-08-12T03:05:36;12.32;;;7.90;;
13801;SDS011;6972;51.518;6.918;2023-08-12T03:08:03;9.80;;;7.10;;
13801;SDS011;6972;51.518;6.918;2023-08-12T03:10:29;13.63;;;8.45;;
13801;SDS011;6972;51.518;6.918;2023-08-12T03:12:55;15.35;;;8.32;;
13801;SDS011;6972;51.518;6.918;2023-08-12T03:15:22;14.90;;;7.38;;
13801;SDS011;6972;51.518;6.918;2023-08-12T03:17:48;11.40;;;7.35;;
13801;SDS011;6972;51.518;6.918;2023-08-12T03:20:14;11.75;;;7.07;;
13801;SDS011;6972;51.518;6.918;2023-08-12T03:22:40;12.15;;;8.07;;
13801;SDS011;6972;51.518;6.918;2023-08-12T03:25:09;11.18;;;7.57;;
13801;SDS011;6972;51.518;6.918;2023-08-12T03:27:35;12.13;;;7.53;;
13801;SDS011;6972;51.518;6.918;2023-08-12T03:30:01;10.13;;;7.45;;
13801;SDS011;6972;51.518;6.918;2023-08-12T03:32:27;12.82;;;8.05;;
13801;SDS011;6972;51.518;6.918;2023-08-12T03:34:53;10.10;;;7.40;;
13801;SDS011;6972;51.518;6.918;2023-08-12T03:37:19;14.73;;;7.82;;
13801;SDS011;6972;51.518;6.918;2023-08-12T03:39:45;13.80;;;8.35;;
13801;SDS011;6972;51.518;6.918;2023-08-12T03:42:11;10.15;;;7.18;;
13801;SDS011;6972;51.518;6.918;2023-08-12T03:44:37;11.88;;;8.05;;
13801;SDS011;6972;51.518;6.918;2023-08-12T03:47:03;11.63;;;7.57;;
13801;SDS011;6972;51.518;6.918;2023-08-12T03:49:29;9.45;;;6.80;;
13801;SDS011;6972;51.518;6.918;2023-08-12T03:51:55;9.63;;;6.88;;
13801;SDS011;6972;51.518;6.918;2023-08-12T03:54:21;11.25;;;7.53;;
13801;SDS011;6972;51.518;6.918;2023-08-12T03:56:47;10.27;;;7.78;;
13801;SDS011;6972;51.518;6.918;2023-08-12T03:59:13;14.80;;;8.07;;
13801;SDS011;6972;51.518;6.918;2023-08-12T04:01:39;11.13;;;7.70;;
13801;SDS011;6972;51.518;6.918;2023-08-12T04:04:05;10.18;;;7.00;;
13801;SDS011;6972;51.518;6.918;2023-08-12T04:06:31;11.70;;;7.22;;
13801;SDS011;6972;51.518;6.918;2023-08-12T04:08:57;10.02;;;7.40;;
13801;SDS011;6972;51.518;6.918;2023-08-12T04:11:23;9.50;;;7.07;;
13801;SDS011;6972;51.518;6.918;2023-08-12T04:13:49;14.60;;;7.22;;
13801;SDS011;6972;51.518;6.918;2023-08-12T04:16:15;8.82;;;7.47;;
13801;SDS011;6972;51.518;6.918;2023-08-12T04:18:41;11.60;;;8.05;;
13801;SDS011;6972;51.518;6.918;2023-08-12T04:21:08;10.93;;;7.45;;
13801;SDS011;6972;51.518;6.918;2023-08-12T04:23:34;14.70;;;7.65;;
13801;SDS011;6972;51.518;6.918;2023-08-12T04:26:00;10.10;;;7.13;;
13801;SDS011;6972;51.518;6.918;2023-08-12T04:28:26;10.13;;;7.07;;
13801;SDS011;6972;51.518;6.918;2023-08-12T04:30:52;11.48;;;7.88;;
13801;SDS011;6972;51.518;6.918;2023-08-12T04:33:18;13.80;;;8.10;;
13801;SDS011;6972;51.518;6.918;2023-08-12T04:35:47;11.27;;;7.78;;
13801;SDS011;6972;51.518;6.918;2023-08-12T04:38:13;9.65;;;6.95;;
13801;SDS011;6972;51.518;6.918;2023-08-12T04:40:43;17.27;;;7.68;;
13801;SDS011;6972;51.518;6.918;2023-08-12T04:43:09;10.77;;;7.07;;
13801;SDS011;6972;51.518;6.918;2023-08-12T04:45:35;14.60;;;7.65;;
13801;SDS011;6972;51.518;6.918;2023-08-12T04:48:01;10.35;;;6.90;;
13801;SDS011;6972;51.518;6.918;2023-08-12T04:50:31;13.13;;;7.68;;
13801;SDS011;6972;51.518;6.918;2023-08-12T04:52:59;9.93;;;6.85;;
13801;SDS011;6972;51.518;6.918;2023-08-12T04:55:25;10.80;;;7.22;;
13801;SDS011;6972;51.518;6.918;2023-08-12T04:57:52;12.30;;;7.30;;
13801;SDS011;6972;51.518;6.918;2023-08-12T05:00:19;12.73;;;7.90;;
13801;SDS011;6972;51.518;6.918;2023-08-12T05:02:45;9.65;;;7.10;;
13801;SDS011;6972;51.518;6.918;2023-08-12T05:05:11;10.82;;;7.32;;
13801;SDS011;6972;51.518;6.918;2023-08-12T05:07:37;14.90;;;7.28;;
13801;SDS011;6972;51.518;6.918;2023-08-12T05:10:03;12.45;;;7.35;;
13801;SDS011;6972;51.518;6.918;2023-08-12T05:12:29;12.85;;;7.40;;
13801;SDS011;6972;51.518;6.918;2023-08-12T05:14:55;11.80;;;6.63;;
13801;SDS011;6972;51.518;6.918;2023-08-12T05:17:21;8.65;;;6.47;;
13801;SDS011;6972;51.518;6.918;2023-08-12T05:19:47;9.10;;;6.15;;
13801;SDS011;6972;51.518;6.918;2023-08-12T05:22:13;9.52;;;6.38;;
13801;SDS011;6972;51.518;6.918;2023-08-12T05:24:39;10.07;;;5.97;;
13801;SDS011;6972;51.518;6.918;2023-08-12T05:27:05;8.27;;;6.13;;
13801;SDS011;6972;51.518;6.918;2023-08-12T05:29:31;10.68;;;6.25;;
13801;SDS011;6972;51.518;6.918;2023-08-12T05:31:57;8.23;;;5.65;;
13801;SDS011;6972;51.518;6.918;2023-08-12T05:34:23;9.70;;;5.45;;
13801;SDS011;6972;51.518;6.918;2023-08-12T05:36:49;11.52;;;5.55;;
13801;SDS011;6972;51.518;6.918;2023-08-12T05:39:15;9.35;;;5.55;;
13801;SDS011;6972;51.518;6.918;2023-08-12T05:41:41;9.07;;;5.65;;
13801;SDS011;6972;51.518;6.918;2023-08-12T05:44:07;10.18;;;5.90;;
13801;SDS011;6972;51.518;6.918;2023-08-12T05:46:33;8.10;;;5.45;;
13801;SDS011;6972;51.518;6.918;2023-08-12T05:49:00;7.82;;;6.07;;
13801;SDS011;6972;51.518;6.918;2023-08-12T05:51:26;9.52;;;6.57;;
13801;SDS011;6972;51.518;6.918;2023-08-12T05:53:52;8.32;;;5.70;;
13801;SDS011;6972;51.518;6.918;2023-08-12T05:56:18;12.55;;;5.07;;
13801;SDS011;6972;51.518;6.918;2023-08-12T05:58:44;8.88;;;5.43;;
13801;SDS011;6972;51.518;6.918;2023-08-12T06:01:10;8.32;;;5.45;;
13801;SDS011;6972;51.518;6.918;2023-08-12T06:03:36;11.07;;;6.38;;
13801;SDS011;6972;51.518;6.918;2023-08-12T06:06:02;7.70;;;5.75;;
13801;SDS011;6972;51.518;6.918;2023-08-12T06:08:28;10.40;;;5.95;;
13801;SDS011;6972;51.518;6.918;2023-08-12T06:10:54;8.63;;;5.28;;
13801;SDS011;6972;51.518;6.918;2023-08-12T06:13:20;8.73;;;5.50;;
13801;SDS011;6972;51.518;6.918;2023-08-12T06:15:46;10.55;;;5.28;;
13801;SDS011;6972;51.518;6.918;2023-08-12T06:18:12;9.90;;;5.35;;
13801;SDS011;6972;51.518;6.918;2023-08-12T06:20:38;7.32;;;5.65;;
13801;SDS011;6972;51.518;6.918;2023-08-12T06:23:04;8.93;;;5.38;;
13801;SDS011;6972;51.518;6.918;2023-08-12T06:25:30;9.05;;;5.15;;
13801;SDS011;6972;51.518;6.918;2023-08-12T06:27:56;9.63;;;5.40;;
13801;SDS011;6972;51.518;6.918;2023-08-12T06:30:23;10.60;;;5.13;;
13801;SDS011;6972;51.518;6.918;2023-08-12T06:32:49;8.80;;;5.55;;
13801;SDS011;6972;51.518;6.918;2023-08-12T06:35:16;9.70;;;5.57;;
13801;SDS011;6972;51.518;6.918;2023-08-12T06:37:42;8.10;;;5.18;;
13801;SDS011;6972;51.518;6.918;2023-08-12T06:40:08;7.95;;;5.45;;
13801;SDS011;6972;51.518;6.918;2023-08-12T06:42:34;8.10;;;5.10;;
13801;SDS011;6972;51.518;6.918;2023-08-12T06:45:00;8.38;;;4.93;;
13801;SDS011;6972;51.518;6.918;2023-08-12T06:47:28;9.45;;;5.43;;
13801;SDS011;6972;51.518;6.918;2023-08-12T06:49:55;8.95;;;5.28;;
13801;SDS011;6972;51.518;6.918;2023-08-12T06:52:21;7.28;;;4.70;;
13801;SDS011;6972;51.518;6.918;2023-08-12T06:54:47;7.22;;;4.50;;
13801;SDS011;6972;51.518;6.918;2023-08-12T06:57:13;8.88;;;4.93;;
13801;SDS011;6972;51.518;6.918;2023-08-12T06:59:39;9.02;;;4.97;;
13801;SDS011;6972;51.518;6.918;2023-08-12T07:02:06;8.27;;;4.68;;
13801;SDS011;6972;51.518;6.918;2023-08-12T07:04:32;7.93;;;4.90;;
13801;SDS011;6972;51.518;6.918;2023-08-12T07:06:58;6.65;;;4.75;;
13801;SDS011;6972;51.518;6.918;2023-08-12T07:09:25;8.35;;;4.72;;
13801;SDS011;6972;51.518;6.918;2023-08-12T07:11:51;7.82;;;4.40;;
13801;SDS011;6972;51.518;6.918;2023-08-12T07:14:17;6.55;;;4.50;;
13801;SDS011;6972;51.518;6.918;2023-08-12T07:16:43;6.05;;;3.92;;
13801;SDS011;6972;51.518;6.918;2023-08-12T07:19:09;6.30;;;4.10;;
13801;SDS011;6972;51.518;6.918;2023-08-12T07:21:35;5.55;;;4.22;;
13801;SDS011;6972;51.518;6.918;2023-08-12T07:24:01;4.63;;;4.15;;
13801;SDS011;6972;51.518;6.918;2023-08-12T07:26:27;6.05;;;3.95;;
13801;SDS011;6972;51.518;6.918;2023-08-12T07:28:53;6.47;;;3.55;;
13801;SDS011;6972;51.518;6.918;2023-08-12T07:31:19;5.28;;;3.65;;
13801;SDS011;6972;51.518;6.918;2023-08-12T07:33:45;6.60;;;3.80;;
13801;SDS011;6972;51.518;6.918;2023-08-12T07:36:11;6.47;;;3.80;;
13801;SDS011;6972;51.518;6.918;2023-08-12T07:38:38;5.25;;;3.95;;
13801;SDS011;6972;51.518;6.918;2023-08-12T07:41:04;4.63;;;3.50;;
13801;SDS011;6972;51.518;6.918;2023-08-12T07:43:30;5.47;;;3.63;;
13801;SDS011;6972;51.518;6.918;2023-08-12T07:45:56;3.35;;;3.03;;
13801;SDS011;6972;51.518;6.918;2023-08-12T07:48:23;5.15;;;3.72;;
13801;SDS011;6972;51.518;6.918;2023-08-12T07:51:07;5.57;;;3.97;;
13801;SDS011;6972;51.518;6.918;2023-08-12T07:53:33;4.70;;;3.47;;
13801;SDS011;6972;51.518;6.918;2023-08-12T07:56:00;6.22;;;3.75;;
13801;SDS011;6972;51.518;6.918;2023-08-12T07:58:26;5.03;;;3.58;;
13801;SDS011;6972;51.518;6.918;2023-08-12T08:00:52;4.07;;;3.60;;
13801;SDS011;6972;51.518;6.918;2023-08-12T08:03:19;5.20;;;3.97;;
13801;SDS011;6972;51.518;6.918;2023-08-12T08:05:45;3.90;;;3.50;;
13801;SDS011;6972;51.518;6.918;2023-08-12T08:08:12;7.10;;;3.90;;
13801;SDS011;6972;51.518;6.918;2023-08-12T08:10:38;4.25;;;3.58;;
13801;SDS011;6972;51.518;6.918;2023-08-12T08:13:04;3.80;;;3.22;;
13801;SDS011;6972;51.518;6.918;2023-08-12T08:15:30;5.00;;;4.35;;
13801;SDS011;6972;51.518;6.918;2023-08-12T08:17:56;5.78;;;3.78;;
13801;SDS011;6972;51.518;6.918;2023-08-12T08:20:23;4.35;;;3.75;;
13801;SDS011;6972;51.518;6.918;2023-08-12T08:22:49;4.72;;;3.58;;
13801;SDS011;6972;51.518;6.918;2023-08-12T08:25:15;3.92;;;3.53;;
13801;SDS011;6972;51.518;6.918;2023-08-12T08:27:41;5.30;;;3.53;;
13801;SDS011;6972;51.518;6.918;2023-08-12T08:30:08;7.10;;;3.72;;
13801;SDS011;6972;51.518;6.918;2023-08-12T08:32:34;6.03;;;3.63;;
13801;SDS011;6972;51.518;6.918;2023-08-12T08:35:00;6.80;;;4.18;;
13801;SDS011;6972;51.518;6.918;2023-08-12T08:37:26;8.25;;;3.70;;
13801;SDS011;6972;51.518;6.918;2023-08-12T08:39:52;6.75;;;3.83;;
13801;SDS011;6972;51.518;6.918;2023-08-12T08:42:18;6.45;;;3.75;;
13801;SDS011;6972;51.518;6.918;2023-08-12T08:44:45;6.78;;;3.67;;
13801;SDS011;6972;51.518;6.918;2023-08-12T08:47:16;7.07;;;3.60;;
13801;SDS011;6972;51.518;6.918;2023-08-12T08:49:45;5.60;;;2.80;;
13801;SDS011;6972;51.518;6.918;2023-08-12T08:52:12;4.72;;;3.58;;
13801;SDS011;6972;51.518;6.918;2023-08-12T08:54:39;4.90;;;3.22;;
13801;SDS011;6972;51.518;6.918;2023-08-12T08:57:05;3.00;;;2.72;;
13801;SDS011;6972;51.518;6.918;2023-08-12T08:59:31;4.88;;;3.35;;
13801;SDS011;6972;51.518;6.918;2023-08-12T09:01:57;5.38;;;3.05;;
13801;SDS011;6972;51.518;6.918;2023-08-12T09:04:24;5.40;;;3.30;;
13801;SDS011;6972;51.518;6.918;2023-08-12T09:06:51;3.10;;;2.80;;
13801;SDS011;6972;51.518;6.918;2023-08-12T09:09:18;5.07;;;3.40;;
13801;SDS011;6972;51.518;6.918;2023-08-12T09:11:46;4.47;;;3.00;;
13801;SDS011;6972;51.518;6.918;2023-08-12T09:14:12;5.38;;;2.97;;
13801;SDS011;6972;51.518;6.918;2023-08-12T09:16:39;2.92;;;2.55;;
13801;SDS011;6972;51.518;6.918;2023-08-12T09:19:06;4.28;;;2.80;;
13801;SDS011;6972;51.518;6.918;2023-08-12T09:21:32;4.57;;;3.03;;
13801;SDS011;6972;51.518;6.918;2023-08-12T09:24:00;3.88;;;2.35;;
13801;SDS011;6972;51.518;6.918;2023-08-12T09:26:28;5.93;;;3.20;;
13801;SDS011;6972;51.518;6.918;2023-08-12T09:28:54;4.15;;;3.00;;
13801;SDS011;6972;51.518;6.918;2023-08-12T09:31:27;3.55;;;3.05;;
13801;SDS011;6972;51.518;6.918;2023-08-12T09:33:57;3.65;;;2.50;;
13801;SDS011;6972;51.518;6.918;2023-08-12T09:36:23;4.53;;;2.70;;
13801;SDS011;6972;51.518;6.918;2023-08-12T09:38:49;5.10;;;2.85;;
13801;SDS011;6972;51.518;6.918;2023-08-12T09:41:15;4.10;;;2.60;;
13801;SDS011;6972;51.518;6.918;2023-08-12T09:43:41;4.75;;;3.00;;
13801;SDS011;6972;51.518;6.918;2023-08-12T09:46:10;5.72;;;3.13;;
13801;SDS011;6972;51.518;6.918;2023-08-12T09:48:37;7.47;;;3.13;;
13801;SDS011;6972;51.518;6.918;2023-08-12T09:51:03;7.03;;;3.33;;
13801;SDS011;6972;51.518;6.918;2023-08-12T09:53:31;5.25;;;3.58;;
13801;SDS011;6972;51.518;6.918;2023-08-12T09:55:59;5.78;;;3.53;;
13801;SDS011;6972;51.518;6.918;2023-08-12T09:58:26;4.20;;;3.70;;
13801;SDS011;6972;51.518;6.918;2023-08-12T10:00:54;5.25;;;3.30;;
13801;SDS011;6972;51.518;6.918;2023-08-12T10:03:21;4.38;;;3.33;;
13801;SDS011;6972;51.518;6.918;2023-08-12T10:05:47;5.05;;;3.70;;
13801;SDS011;6972;51.518;6.918;2023-08-12T10:08:14;5.78;;;3.83;;
13801;SDS011;6972;51.518;6.918;2023-08-12T10:10:41;5.78;;;4.13;;
13801;SDS011;6972;51.518;6.918;2023-08-12T10:13:09;5.45;;;3.67;;
13801;SDS011;6972;51.518;6.918;2023-08-12T10:15:35;4.15;;;3.75;;
13801;SDS011;6972;51.518;6.918;2023-08-12T10:18:01;4.20;;;3.63;;
13801;SDS011;6972;51.518;6.918;2023-08-12T10:20:27;8.25;;;3.80;;
13801;SDS011;6972;51.518;6.918;2023-08-12T10:22:55;4.03;;;3.63;;
13801;SDS011;6972;51.518;6.918;2023-08-12T10:25:22;6.88;;;4.07;;
13801;SDS011;6972;51.518;6.918;2023-08-12T10:27:50;3.47;;;3.17;;
13801;SDS011;6972;51.518;6.918;2023-08-12T10:30:16;3.42;;;3.13;;
13801;SDS011;6972;51.518;6.918;2023-08-12T10:32:42;5.07;;;2.75;;
13801;SDS011;6972;51.518;6.918;2023-08-12T10:35:09;5.15;;;2.88;;
13801;SDS011;6972;51.518;6.918;2023-08-12T10:37:35;3.03;;;2.58;;
13801;SDS011;6972;51.518;6.918;2023-08-12T10:40:05;4.68;;;3.30;;
13801;SDS011;6972;51.518;6.918;2023-08-12T10:42:45;3.58;;;3.20;;
13801;SDS011;6972;51.518;6.918;2023-08-12T10:45:12;3.70;;;2.88;;
13801;SDS011;6972;51.518;6.918;2023-08-12T10:50:18;3.38;;;3.08;;
13801;SDS011;6972;51.518;6.918;2023-08-12T10:52:44;3.55;;;3.20;;
13801;SDS011;6972;51.518;6.918;2023-08-12T10:55:21;3.65;;;3.20;;
13801;SDS011;6972;51.518;6.918;2023-08-12T10:57:48;9.02;;;3.33;;
13801;SDS011;6972;51.518;6.918;2023-08-12T11:00:18;3.15;;;2.85;;
13801;SDS011;6972;51.518;6.918;2023-08-12T11:02:49;3.17;;;2.85;;
13801;SDS011;6972;51.518;6.918;2023-08-12T11:05:15;3.03;;;2.65;;
13801;SDS011;6972;51.518;6.918;2023-08-12T11:07:57;4.10;;;2.60;;
13801;SDS011;6972;51.518;6.918;2023-08-12T11:10:24;4.40;;;2.42;;
13801;SDS011;6972;51.518;6.918;2023-08-12T11:15:52;3.22;;;2.40;;
13801;SDS011;6972;51.518;6.918;2023-08-12T11:18:13;3.53;;;2.10;;
13801;SDS011;6972;51.518;6.918;2023-08-12T11:20:41;2.65;;;2.20;;
13801;SDS011;6972;51.518;6.918;2023-08-12T11:23:08;2.65;;;2.20;;
13801;SDS011;6972;51.518;6.918;2023-08-12T11:25:34;2.55;;;2.20;;
13801;SDS011;6972;51.518;6.918;2023-08-12T11:28:01;2.35;;;1.90;;
13801;SDS011;6972;51.518;6.918;2023-08-12T11:30:27;2.22;;;1.83;;
13801;SDS011;6972;51.518;6.918;2023-08-12T11:32:54;3.30;;;1.95;;
13801;SDS011;6972;51.518;6.918;2023-08-12T11:35:20;2.90;;;2.00;;
13801;SDS011;6972;51.518;6.918;2023-08-12T11:37:48;2.15;;;1.65;;
13801;SDS011;6972;51.518;6.918;2023-08-12T11:40:16;2.00;;;1.70;;
13801;SDS011;6972;51.518;6.918;2023-08-12T11:42:43;1.63;;;1.50;;
13801;SDS011;6972;51.518;6.918;2023-08-12T11:45:10;2.10;;;1.85;;
13801;SDS011;6972;51.518;6.918;2023-08-12T11:47:37;2.10;;;1.90;;
13801;SDS011;6972;51.518;6.918;2023-08-12T11:50:04;3.45;;;2.00;;
13801;SDS011;6972;51.518;6.918;2023-08-12T11:52:30;2.35;;;1.90;;
13801;SDS011;6972;51.518;6.918;2023-08-12T11:54:57;2.88;;;2.35;;
13801;SDS011;6972;51.518;6.918;2023-08-12T11:57:23;3.08;;;2.50;;
13801;SDS011;6972;51.518;6.918;2023-08-12T11:59:49;4.25;;;2.50;;
13801;SDS011;6972;51.518;6.918;2023-08-12T12:02:16;2.92;;;2.38;;
13801;SDS011;6972;51.518;6.918;2023-08-12T12:04:42;4.97;;;2.38;;
13801;SDS011;6972;51.518;6.918;2023-08-12T12:07:21;3.38;;;2.70;;
13801;SDS011;6972;51.518;6.918;2023-08-12T12:09:49;3.47;;;3.00;;
13801;SDS011;6972;51.518;6.918;2023-08-12T12:12:16;3.05;;;2.45;;
13801;SDS011;6972;51.518;6.918;2023-08-12T12:14:42;5.85;;;2.95;;
13801;SDS011;6972;51.518;6.918;2023-08-12T12:17:08;6.15;;;3.40;;
13801;SDS011;6972;51.518;6.918;2023-08-12T12:19:35;6.43;;;3.50;;
13801;SDS011;6972;51.518;6.918;2023-08-12T12:22:04;5.15;;;3.60;;
13801;SDS011;6972;51.518;6.918;2023-08-12T12:24:30;5.13;;;3.47;;
13801;SDS011;6972;51.518;6.918;2023-08-12T12:26:56;4.72;;;3.20;;
13801;SDS011;6972;51.518;6.918;2023-08-12T12:29:22;4.60;;;3.58;;
13801;SDS011;6972;51.518;6.918;2023-08-12T12:31:48;5.13;;;3.67;;
13801;SDS011;6972;51.518;6.918;2023-08-12T12:34:14;7.05;;;4.00;;
13801;SDS011;6972;51.518;6.918;2023-08-12T12:36:42;5.85;;;3.42;;
13801;SDS011;6972;51.518;6.918;2023-08-12T12:39:08;5.60;;;3.58;;
13801;SDS011;6972;51.518;6.918;2023-08-12T12:41:34;6.75;;;3.90;;
13801;SDS011;6972;51.518;6.918;2023-08-12T12:44:00;5.53;;;3.72;;
13801;SDS011;6972;51.518;6.918;2023-08-12T12:46:30;4.35;;;3.72;;
13801;SDS011;6972;51.518;6.918;2023-08-12T12:48:56;5.30;;;4.80;;
13801;SDS011;6972;51.518;6.918;2023-08-12T12:51:22;5.20;;;4.65;;
13801;SDS011;6972;51.518;6.918;2023-08-12T12:53:48;6.38;;;4.40;;
13801;SDS011;6972;51.518;6.918;2023-08-12T12:56:14;5.88;;;4.30;;
13801;SDS011;6972;51.518;6.918;2023-08-12T12:58:46;4.68;;;4.22;;
13801;SDS011;6972;51.518;6.918;2023-08-12T13:01:13;4.80;;;4.38;;
13801;SDS011;6972;51.518;6.918;2023-08-12T13:03:39;4.53;;;4.13;;
13801;SDS011;6972;51.518;6.918;2023-08-12T13:06:08;6.85;;;5.00;;
13801;SDS011;6972;51.518;6.918;2023-08-12T13:08:34;6.60;;;4.97;;
13801;SDS011;6972;51.518;6.918;2023-08-12T13:11:00;7.47;;;5.18;;
13801;SDS011;6972;51.518;6.918;2023-08-12T13:13:26;6.50;;;5.15;;
13801;SDS011;6972;51.518;6.918;2023-08-12T13:15:52;6.07;;;5.20;;
13801;SDS011;6972;51.518;6.918;2023-08-12T13:18:18;6.63;;;5.90;;
13801;SDS011;6972;51.518;6.918;2023-08-12T13:20:44;8.85;;;5.65;;
13801;SDS011;6972;51.518;6.918;2023-08-12T13:23:10;7.68;;;5.97;;
13801;SDS011;6972;51.518;6.918;2023-08-12T13:25:37;8.15;;;6.25;;
13801;SDS011;6972;51.518;6.918;2023-08-12T13:28:03;6.80;;;6.05;;
13801;SDS011;6972;51.518;6.918;2023-08-12T13:30:29;6.22;;;5.63;;
13801;SDS011;6972;51.518;6.918;2023-08-12T13:32:55;7.03;;;6.32;;
13801;SDS011;6972;51.518;6.918;2023-08-12T13:35:22;6.80;;;6.15;;
13801;SDS011;6972;51.518;6.918;2023-08-12T13:37:49;7.78;;;6.97;;
13801;SDS011;6972;51.518;6.918;2023-08-12T13:40:16;8.55;;;7.75;;
13801;SDS011;6972;51.518;6.918;2023-08-12T13:42:42;10.43;;;7.75;;
13801;SDS011;6972;51.518;6.918;2023-08-12T13:45:09;9.75;;;7.90;;
13801;SDS011;6972;51.518;6.918;2023-08-12T13:47:36;7.40;;;5.55;;
13801;SDS011;6972;51.518;6.918;2023-08-12T13:50:02;4.22;;;3.50;;
13801;SDS011;6972;51.518;6.918;2023-08-12T13:52:28;3.92;;;3.47;;
13801;SDS011;6972;51.518;6.918;2023-08-12T13:54:54;7.97;;;3.63;;
13801;SDS011;6972;51.518;6.918;2023-08-12T13:57:20;5.38;;;3.50;;
13801;SDS011;6972;51.518;6.918;2023-08-12T13:59:46;4.40;;;3.42;;
13801;SDS011;6972;51.518;6.918;2023-08-12T14:02:12;3.40;;;3.10;;
13801;SDS011;6972;51.518;6.918;2023-08-12T14:04:38;4.03;;;3.20;;
13801;SDS011;6972;51.518;6.918;2023-08-12T14:07:04;3.53;;;2.90;;
13801;SDS011;6972;51.518;6.918;2023-08-12T14:09:30;5.45;;;3.13;;
13801;SDS011;6972;51.518;6.918;2023-08-12T14:11:58;3.58;;;2.72;;
13801;SDS011;6972;51.518;6.918;2023-08-12T14:14:24;2.92;;;2.60;;
13801;SDS011;6972;51.518;6.918;2023-08-12T14:16:52;3.55;;;2.40;;
13801;SDS011;6972;51.518;6.918;2023-08-12T14:19:18;3.05;;;2.30;;
13801;SDS011;6972;51.518;6.918;2023-08-12T14:21:44;3.85;;;2.45;;
13801;SDS011;6972;51.518;6.918;2023-08-12T14:24:10;4.10;;;2.20;;
13801;SDS011;6972;51.518;6.918;2023-08-12T14:26:38;6.40;;;2.75;;
13801;SDS011;6972;51.518;6.918;2023-08-12T14:29:04;7.10;;;2.88;;
13801;SDS011;6972;51.518;6.918;2023-08-12T14:31:30;3.80;;;3.30;;
13801;SDS011;6972;51.518;6.918;2023-08-12T14:33:56;5.57;;;3.67;;
13801;SDS011;6972;51.518;6.918;2023-08-12T14:36:23;3.60;;;3.28;;
13801;SDS011;6972;51.518;6.918;2023-08-12T14:38:50;4.93;;;3.10;;
13801;SDS011;6972;51.518;6.918;2023-08-12T14:41:16;4.93;;;3.38;;
13801;SDS011;6972;51.518;6.918;2023-08-12T14:43:42;5.57;;;3.10;;
13801;SDS011;6972;51.518;6.918;2023-08-12T14:46:08;6.15;;;3.00;;
13801;SDS011;6972;51.518;6.918;2023-08-12T14:48:34;5.65;;;3.15;;
13801;SDS011;6972;51.518;6.918;2023-08-12T14:51:00;3.55;;;2.63;;
13801;SDS011;6972;51.518;6.918;2023-08-12T14:53:26;3.15;;;2.58;;
13801;SDS011;6972;51.518;6.918;2023-08-12T14:55:52;4.18;;;2.60;;
13801;SDS011;6972;51.518;6.918;2023-08-12T14:58:19;3.58;;;2.25;;
13801;SDS011;6972;51.518;6.918;2023-08-12T15:00:48;8.30;;;2.35;;